sensor_id;sensor_type;location;lat;lon;timestamp;P1;durP1;ratioP1;P2;durP2;ratioP2
36923;SDS011;22841;50.252;18.688;2022-12-07T00:01:06;67.50;;;30.20;;
36923;SDS011;22841;50.252;18.688;2022-12-07T00:03:34;71.05;;;29.95;;
36923;SDS011;22841;50.252;18.688;2022-12-07T00:06:00;65.40;;;29.20;;
36923;SDS011;22841;50.252;18.688;2022-12-07T00:08:27;62.70;;;29.55;;
36923;SDS011;22841;50.252;18.688;2022-12-07T00:10:54;71.65;;;31.17;;
36923;SDS011;22841;50.252;18.688;2022-12-07T00:13:20;72.65;;;31.35;;
36923;SDS011;22841;50.252;18.688;2022-12-07T00:15:46;69.03;;;30.35;;
36923;SDS011;22841;50.252;18.688;2022-12-07T00:18:12;73.38;;;31.92;;
36923;SDS011;22841;50.252;18.688;2022-12-07T00:20:38;74.40;;;32.45;;
36923;SDS011;22841;50.252;18.688;2022-12-07T00:23:04;76.32;;;29.38;;
36923;SDS011;22841;50.252;18.688;2022-12-07T00:25:31;63.95;;;29.75;;
36923;SDS011;22841;50.252;18.688;2022-12-07T00:27:57;60.65;;;28.17;;
36923;SDS011;22841;50.252;18.688;2022-12-07T00:30:23;59.10;;;27.88;;
36923;SDS011;22841;50.252;18.688;2022-12-07T00:32:49;57.47;;;26.42;;
36923;SDS011;22841;50.252;18.688;2022-12-07T00:35:16;57.63;;;28.15;;
36923;SDS011;22841;50.252;18.688;2022-12-07T00:37:42;61.70;;;30.65;;
36923;SDS011;22841;50.252;18.688;2022-12-07T00:40:08;74.50;;;32.38;;
36923;SDS011;22841;50.252;18.688;2022-12-07T00:42:34;77.13;;;33.50;;
36923;SDS011;22841;50.252;18.688;2022-12-07T00:45:01;55.50;;;27.70;;
36923;SDS011;22841;50.252;18.688;2022-12-07T00:47:27;69.03;;;32.13;;
36923;SDS011;22841;50.252;18.688;2022-12-07T00:49:53;57.72;;;26.58;;
36923;SDS011;22841;50.252;18.688;2022-12-07T00:52:19;52.78;;;25.95;;
36923;SDS011;22841;50.252;18.688;2022-12-07T00:54:45;54.17;;;26.73;;
36923;SDS011;22841;50.252;18.688;2022-12-07T00:57:11;55.50;;;26.25;;
36923;SDS011;22841;50.252;18.688;2022-12-07T00:59:37;58.50;;;26.20;;
36923;SDS011;22841;50.252;18.688;2022-12-07T01:02:03;53.40;;;26.52;;
36923;SDS011;22841;50.252;18.688;2022-12-07T01:04:29;53.03;;;25.05;;
36923;SDS011;22841;50.252;18.688;2022-12-07T01:06:55;54.20;;;23.50;;
36923;SDS011;22841;50.252;18.688;2022-12-07T01:09:21;57.00;;;22.58;;
36923;SDS011;22841;50.252;18.688;2022-12-07T01:11:48;50.80;;;24.48;;
36923;SDS011;22841;50.252;18.688;2022-12-07T01:14:14;49.20;;;25.67;;
36923;SDS011;22841;50.252;18.688;2022-12-07T01:16:40;56.72;;;24.95;;
36923;SDS011;22841;50.252;18.688;2022-12-07T01:19:06;53.35;;;25.58;;
36923;SDS011;22841;50.252;18.688;2022-12-07T01:21:33;56.90;;;24.02;;
36923;SDS011;22841;50.252;18.688;2022-12-07T01:24:01;56.33;;;25.85;;
36923;SDS011;22841;50.252;18.688;2022-12-07T01:26:33;62.08;;;29.75;;
36923;SDS011;22841;50.252;18.688;2022-12-07T01:28:59;55.85;;;27.15;;
36923;SDS011;22841;50.252;18.688;2022-12-07T01:31:26;64.20;;;28.33;;
36923;SDS011;22841;50.252;18.688;2022-12-07T01:33:56;61.40;;;31.33;;
36923;SDS011;22841;50.252;18.688;2022-12-07T01:46:50;66.05;;;30.98;;
36923;SDS011;22841;50.252;18.688;2022-12-07T02:33:33;73.70;;;36.20;;
36923;SDS011;22841;50.252;18.688;2022-12-07T02:36:09;70.20;;;34.35;;
36923;SDS011;22841;50.252;18.688;2022-12-07T02:38:46;68.85;;;33.25;;
36923;SDS011;22841;50.252;18.688;2022-12-07T02:43:50;76.72;;;33.50;;
36923;SDS011;22841;50.252;18.688;2022-12-07T02:46:21;63.17;;;29.83;;
36923;SDS011;22841;50.252;18.688;2022-12-07T02:48:53;65.10;;;30.77;;
36923;SDS011;22841;50.252;18.688;2022-12-07T02:51:21;61.85;;;27.70;;
36923;SDS011;22841;50.252;18.688;2022-12-07T02:53:48;55.47;;;26.48;;
36923;SDS011;22841;50.252;18.688;2022-12-07T02:59:17;55.55;;;24.77;;
36923;SDS011;22841;50.252;18.688;2022-12-07T03:07:21;55.58;;;23.33;;
36923;SDS011;22841;50.252;18.688;2022-12-07T03:10:17;56.55;;;24.45;;
36923;SDS011;22841;50.252;18.688;2022-12-07T05:54:29;49.58;;;27.15;;
36923;SDS011;22841;50.252;18.688;2022-12-07T05:56:55;41.28;;;23.45;;
36923;SDS011;22841;50.252;18.688;2022-12-07T05:59:21;44.90;;;23.33;;
36923;SDS011;22841;50.252;18.688;2022-12-07T06:01:49;53.55;;;24.65;;
36923;SDS011;22841;50.252;18.688;2022-12-07T06:04:17;45.45;;;21.38;;
36923;SDS011;22841;50.252;18.688;2022-12-07T06:06:45;44.40;;;23.02;;
36923;SDS011;22841;50.252;18.688;2022-12-07T06:09:12;48.30;;;22.55;;
36923;SDS011;22841;50.252;18.688;2022-12-07T06:11:39;48.05;;;23.23;;
36923;SDS011;22841;50.252;18.688;2022-12-07T06:14:24;44.85;;;20.80;;
36923;SDS011;22841;50.252;18.688;2022-12-07T06:16:50;41.38;;;22.45;;
36923;SDS011;22841;50.252;18.688;2022-12-07T06:19:16;42.20;;;22.52;;
36923;SDS011;22841;50.252;18.688;2022-12-07T06:21:42;44.00;;;21.75;;
36923;SDS011;22841;50.252;18.688;2022-12-07T06:24:10;45.97;;;25.55;;
36923;SDS011;22841;50.252;18.688;2022-12-07T06:26:37;42.17;;;22.42;;
36923;SDS011;22841;50.252;18.688;2022-12-07T06:29:03;47.72;;;21.85;;
36923;SDS011;22841;50.252;18.688;2022-12-07T06:31:30;51.92;;;24.77;;
36923;SDS011;22841;50.252;18.688;2022-12-07T06:34:00;52.83;;;23.83;;
36923;SDS011;22841;50.252;18.688;2022-12-07T06:36:27;51.58;;;24.73;;
36923;SDS011;22841;50.252;18.688;2022-12-07T06:38:53;46.28;;;24.33;;
36923;SDS011;22841;50.252;18.688;2022-12-07T06:41:19;46.30;;;21.63;;
36923;SDS011;22841;50.252;18.688;2022-12-07T06:43:46;43.13;;;22.58;;
36923;SDS011;22841;50.252;18.688;2022-12-07T06:46:12;54.55;;;25.27;;
36923;SDS011;22841;50.252;18.688;2022-12-07T06:48:40;41.08;;;21.20;;
36923;SDS011;22841;50.252;18.688;2022-12-07T06:51:06;41.65;;;20.88;;
36923;SDS011;22841;50.252;18.688;2022-12-07T06:53:32;48.97;;;23.52;;
36923;SDS011;22841;50.252;18.688;2022-12-07T06:55:59;41.47;;;22.88;;
36923;SDS011;22841;50.252;18.688;2022-12-07T06:58:25;40.00;;;21.05;;
36923;SDS011;22841;50.252;18.688;2022-12-07T07:00:51;43.50;;;20.33;;
36923;SDS011;22841;50.252;18.688;2022-12-07T07:03:17;32.25;;;17.90;;
36923;SDS011;22841;50.252;18.688;2022-12-07T07:05:44;34.35;;;17.45;;
36923;SDS011;22841;50.252;18.688;2022-12-07T07:08:11;36.45;;;17.77;;
36923;SDS011;22841;50.252;18.688;2022-12-07T07:10:37;35.60;;;18.98;;
36923;SDS011;22841;50.252;18.688;2022-12-07T07:13:04;50.30;;;22.85;;
36923;SDS011;22841;50.252;18.688;2022-12-07T07:15:31;37.20;;;19.80;;
36923;SDS011;22841;50.252;18.688;2022-12-07T07:17:58;37.95;;;18.88;;
36923;SDS011;22841;50.252;18.688;2022-12-07T07:20:25;42.50;;;21.20;;
36923;SDS011;22841;50.252;18.688;2022-12-07T07:23:01;44.60;;;19.92;;
36923;SDS011;22841;50.252;18.688;2022-12-07T07:25:27;43.55;;;21.95;;
36923;SDS011;22841;50.252;18.688;2022-12-07T07:27:54;54.90;;;21.25;;
36923;SDS011;22841;50.252;18.688;2022-12-07T07:30:20;48.80;;;20.77;;
36923;SDS011;22841;50.252;18.688;2022-12-07T07:32:46;49.58;;;23.95;;
36923;SDS011;22841;50.252;18.688;2022-12-07T07:35:13;42.10;;;20.15;;
36923;SDS011;22841;50.252;18.688;2022-12-07T07:37:39;41.05;;;20.30;;
36923;SDS011;22841;50.252;18.688;2022-12-07T07:40:06;49.85;;;22.63;;
36923;SDS011;22841;50.252;18.688;2022-12-07T07:42:34;54.15;;;24.98;;
36923;SDS011;22841;50.252;18.688;2022-12-07T07:45:00;52.78;;;24.88;;
36923;SDS011;22841;50.252;18.688;2022-12-07T07:47:26;98.53;;;41.20;;
36923;SDS011;22841;50.252;18.688;2022-12-07T07:49:56;103.00;;;46.45;;
36923;SDS011;22841;50.252;18.688;2022-12-07T07:52:22;65.18;;;31.05;;
36923;SDS011;22841;50.252;18.688;2022-12-07T07:54:48;43.72;;;22.88;;
36923;SDS011;22841;50.252;18.688;2022-12-07T07:59:51;33.55;;;17.52;;
36923;SDS011;22841;50.252;18.688;2022-12-07T08:02:17;66.22;;;28.27;;
36923;SDS011;22841;50.252;18.688;2022-12-07T08:07:21;48.15;;;25.88;;
36923;SDS011;22841;50.252;18.688;2022-12-07T08:14:59;22.70;;;12.68;;
36923;SDS011;22841;50.252;18.688;2022-12-07T08:17:27;28.33;;;14.65;;
36923;SDS011;22841;50.252;18.688;2022-12-07T08:25:05;37.95;;;17.58;;
36923;SDS011;22841;50.252;18.688;2022-12-07T08:30:07;33.15;;;16.75;;
36923;SDS011;22841;50.252;18.688;2022-12-07T09:29:43;64.75;;;31.00;;
36923;SDS011;22841;50.252;18.688;2022-12-07T09:47:45;83.78;;;44.13;;
36923;SDS011;22841;50.252;18.688;2022-12-07T14:01:08;18.30;;;10.15;;
36923;SDS011;22841;50.252;18.688;2022-12-07T14:03:43;19.88;;;12.35;;
36923;SDS011;22841;50.252;18.688;2022-12-07T14:06:14;18.27;;;9.90;;
36923;SDS011;22841;50.252;18.688;2022-12-07T14:12:19;26.10;;;14.30;;
36923;SDS011;22841;50.252;18.688;2022-12-07T14:14:48;22.10;;;12.45;;
36923;SDS011;22841;50.252;18.688;2022-12-07T14:17:16;27.67;;;15.65;;
36923;SDS011;22841;50.252;18.688;2022-12-07T14:26:28;24.63;;;12.63;;
36923;SDS011;22841;50.252;18.688;2022-12-07T14:38:21;17.43;;;10.33;;
36923;SDS011;22841;50.252;18.688;2022-12-07T14:44:12;24.90;;;13.17;;
36923;SDS011;22841;50.252;18.688;2022-12-07T14:46:38;29.48;;;13.35;;
36923;SDS011;22841;50.252;18.688;2022-12-07T14:49:04;29.95;;;17.67;;
36923;SDS011;22841;50.252;18.688;2022-12-07T14:51:31;31.55;;;18.15;;
36923;SDS011;22841;50.252;18.688;2022-12-07T14:53:58;26.30;;;12.45;;
36923;SDS011;22841;50.252;18.688;2022-12-07T14:56:24;24.55;;;12.60;;
36923;SDS011;22841;50.252;18.688;2022-12-07T15:37:52;23.88;;;11.20;;
36923;SDS011;22841;50.252;18.688;2022-12-07T15:40:18;21.58;;;11.70;;
36923;SDS011;22841;50.252;18.688;2022-12-07T15:42:45;19.45;;;9.95;;
36923;SDS011;22841;50.252;18.688;2022-12-07T15:45:11;22.80;;;10.10;;
36923;SDS011;22841;50.252;18.688;2022-12-07T15:47:39;36.60;;;15.02;;
36923;SDS011;22841;50.252;18.688;2022-12-07T15:50:09;21.83;;;10.82;;
36923;SDS011;22841;50.252;18.688;2022-12-07T15:56:05;22.27;;;12.15;;
36923;SDS011;22841;50.252;18.688;2022-12-07T16:01:54;28.15;;;15.30;;
36923;SDS011;22841;50.252;18.688;2022-12-07T16:07:42;17.90;;;9.70;;
36923;SDS011;22841;50.252;18.688;2022-12-07T16:10:11;24.35;;;10.63;;
36923;SDS011;22841;50.252;18.688;2022-12-07T16:12:37;23.38;;;12.50;;
36923;SDS011;22841;50.252;18.688;2022-12-07T16:15:04;24.48;;;13.43;;
36923;SDS011;22841;50.252;18.688;2022-12-07T16:17:30;26.25;;;15.07;;
36923;SDS011;22841;50.252;18.688;2022-12-07T16:19:58;17.70;;;9.45;;
36923;SDS011;22841;50.252;18.688;2022-12-07T16:22:24;23.13;;;12.32;;
36923;SDS011;22841;50.252;18.688;2022-12-07T16:24:50;18.23;;;10.88;;
36923;SDS011;22841;50.252;18.688;2022-12-07T16:27:16;26.08;;;11.88;;
36923;SDS011;22841;50.252;18.688;2022-12-07T16:29:42;23.30;;;12.32;;
36923;SDS011;22841;50.252;18.688;2022-12-07T16:32:09;23.20;;;11.77;;
36923;SDS011;22841;50.252;18.688;2022-12-07T17:30:38;23.52;;;10.63;;
36923;SDS011;22841;50.252;18.688;2022-12-07T17:33:04;20.15;;;10.75;;
36923;SDS011;22841;50.252;18.688;2022-12-07T17:35:30;21.48;;;11.38;;
36923;SDS011;22841;50.252;18.688;2022-12-07T17:37:56;23.02;;;10.93;;
36923;SDS011;22841;50.252;18.688;2022-12-07T17:40:22;26.17;;;12.75;;
36923;SDS011;22841;50.252;18.688;2022-12-07T17:42:49;34.05;;;14.15;;
36923;SDS011;22841;50.252;18.688;2022-12-07T17:45:16;49.45;;;16.40;;
36923;SDS011;22841;50.252;18.688;2022-12-07T17:47:42;29.65;;;13.25;;
36923;SDS011;22841;50.252;18.688;2022-12-07T17:50:08;37.17;;;15.48;;
36923;SDS011;22841;50.252;18.688;2022-12-07T17:52:38;39.17;;;17.20;;
36923;SDS011;22841;50.252;18.688;2022-12-07T17:55:24;41.33;;;18.38;;
36923;SDS011;22841;50.252;18.688;2022-12-07T17:57:50;38.90;;;18.42;;
36923;SDS011;22841;50.252;18.688;2022-12-07T18:00:17;45.17;;;18.95;;
36923;SDS011;22841;50.252;18.688;2022-12-07T18:02:44;43.25;;;18.85;;
36923;SDS011;22841;50.252;18.688;2022-12-07T18:05:10;43.10;;;20.13;;
36923;SDS011;22841;50.252;18.688;2022-12-07T18:07:36;41.55;;;18.52;;
36923;SDS011;22841;50.252;18.688;2022-12-07T18:10:02;44.40;;;19.77;;
36923;SDS011;22841;50.252;18.688;2022-12-07T18:12:31;47.75;;;20.52;;
36923;SDS011;22841;50.252;18.688;2022-12-07T18:14:57;40.40;;;18.10;;
36923;SDS011;22841;50.252;18.688;2022-12-07T18:17:23;45.60;;;20.05;;
36923;SDS011;22841;50.252;18.688;2022-12-07T18:19:54;46.95;;;20.73;;
36923;SDS011;22841;50.252;18.688;2022-12-07T18:22:20;45.00;;;19.13;;
36923;SDS011;22841;50.252;18.688;2022-12-07T18:24:46;39.65;;;18.98;;
36923;SDS011;22841;50.252;18.688;2022-12-07T18:27:13;43.83;;;19.05;;
36923;SDS011;22841;50.252;18.688;2022-12-07T18:29:40;45.00;;;18.20;;
36923;SDS011;22841;50.252;18.688;2022-12-07T18:32:06;36.40;;;17.88;;
36923;SDS011;22841;50.252;18.688;2022-12-07T18:34:32;44.28;;;17.98;;
36923;SDS011;22841;50.252;18.688;2022-12-07T18:36:58;40.72;;;18.65;;
36923;SDS011;22841;50.252;18.688;2022-12-07T18:39:24;39.92;;;17.40;;
36923;SDS011;22841;50.252;18.688;2022-12-07T18:41:50;41.85;;;17.52;;
36923;SDS011;22841;50.252;18.688;2022-12-07T18:44:16;39.55;;;16.95;;
36923;SDS011;22841;50.252;18.688;2022-12-07T18:46:42;37.40;;;17.02;;
36923;SDS011;22841;50.252;18.688;2022-12-07T18:49:12;40.78;;;17.95;;
36923;SDS011;22841;50.252;18.688;2022-12-07T18:51:39;35.65;;;15.95;;
36923;SDS011;22841;50.252;18.688;2022-12-07T18:54:05;35.92;;;15.88;;
36923;SDS011;22841;50.252;18.688;2022-12-07T18:56:32;38.72;;;16.85;;
36923;SDS011;22841;50.252;18.688;2022-12-07T18:59:02;29.65;;;14.45;;
36923;SDS011;22841;50.252;18.688;2022-12-07T19:01:51;33.50;;;15.18;;
36923;SDS011;22841;50.252;18.688;2022-12-07T19:04:18;28.50;;;14.73;;
36923;SDS011;22841;50.252;18.688;2022-12-07T19:06:45;32.13;;;13.68;;
36923;SDS011;22841;50.252;18.688;2022-12-07T19:09:12;28.65;;;13.98;;
36923;SDS011;22841;50.252;18.688;2022-12-07T19:11:39;27.90;;;12.57;;
36923;SDS011;22841;50.252;18.688;2022-12-07T19:16:50;26.08;;;12.80;;
36923;SDS011;22841;50.252;18.688;2022-12-07T19:19:19;25.98;;;13.80;;
36923;SDS011;22841;50.252;18.688;2022-12-07T19:21:47;25.90;;;13.68;;
36923;SDS011;22841;50.252;18.688;2022-12-07T19:24:14;29.55;;;14.77;;
36923;SDS011;22841;50.252;18.688;2022-12-07T19:26:40;34.67;;;15.05;;
36923;SDS011;22841;50.252;18.688;2022-12-07T19:29:07;36.28;;;15.90;;
36923;SDS011;22841;50.252;18.688;2022-12-07T19:31:35;40.80;;;19.52;;
36923;SDS011;22841;50.252;18.688;2022-12-07T19:37:04;38.65;;;17.65;;
36923;SDS011;22841;50.252;18.688;2022-12-07T19:39:31;35.58;;;15.80;;
36923;SDS011;22841;50.252;18.688;2022-12-07T19:41:57;38.65;;;18.05;;
36923;SDS011;22841;50.252;18.688;2022-12-07T19:44:24;45.00;;;22.20;;
36923;SDS011;22841;50.252;18.688;2022-12-07T19:46:53;37.67;;;17.85;;
36923;SDS011;22841;50.252;18.688;2022-12-07T19:49:26;36.75;;;16.58;;
36923;SDS011;22841;50.252;18.688;2022-12-07T19:51:54;38.78;;;17.83;;
36923;SDS011;22841;50.252;18.688;2022-12-07T19:57:08;47.58;;;18.95;;
36923;SDS011;22841;50.252;18.688;2022-12-07T19:59:39;40.42;;;17.98;;
36923;SDS011;22841;50.252;18.688;2022-12-07T20:02:05;39.60;;;17.00;;
36923;SDS011;22841;50.252;18.688;2022-12-07T20:04:32;32.80;;;16.17;;
36923;SDS011;22841;50.252;18.688;2022-12-07T20:07:00;35.00;;;16.92;;
36923;SDS011;22841;50.252;18.688;2022-12-07T20:12:14;38.50;;;17.98;;
36923;SDS011;22841;50.252;18.688;2022-12-07T20:15:02;35.65;;;18.92;;
36923;SDS011;22841;50.252;18.688;2022-12-07T20:17:29;38.45;;;20.25;;
36923;SDS011;22841;50.252;18.688;2022-12-07T20:19:55;35.05;;;19.48;;
36923;SDS011;22841;50.252;18.688;2022-12-07T20:22:21;44.83;;;21.17;;
36923;SDS011;22841;50.252;18.688;2022-12-07T20:24:47;47.65;;;21.90;;
36923;SDS011;22841;50.252;18.688;2022-12-07T20:27:13;55.95;;;25.52;;
36923;SDS011;22841;50.252;18.688;2022-12-07T20:29:40;54.65;;;25.08;;
36923;SDS011;22841;50.252;18.688;2022-12-07T20:32:06;47.00;;;25.83;;
36923;SDS011;22841;50.252;18.688;2022-12-07T21:39:34;34.28;;;17.42;;
36923;SDS011;22841;50.252;18.688;2022-12-07T21:42:14;32.13;;;16.00;;
36923;SDS011;22841;50.252;18.688;2022-12-07T21:44:40;35.95;;;17.17;;
36923;SDS011;22841;50.252;18.688;2022-12-07T21:50:06;26.70;;;13.93;;
36923;SDS011;22841;50.252;18.688;2022-12-07T21:52:33;29.17;;;13.52;;
36923;SDS011;22841;50.252;18.688;2022-12-07T21:55:05;34.20;;;15.75;;
36923;SDS011;22841;50.252;18.688;2022-12-07T21:57:32;29.20;;;14.05;;
36923;SDS011;22841;50.252;18.688;2022-12-07T21:59:58;31.08;;;14.20;;
36923;SDS011;22841;50.252;18.688;2022-12-07T22:02:24;29.70;;;13.77;;
36923;SDS011;22841;50.252;18.688;2022-12-07T22:04:50;27.50;;;13.20;;
36923;SDS011;22841;50.252;18.688;2022-12-07T22:07:16;29.17;;;14.35;;
36923;SDS011;22841;50.252;18.688;2022-12-07T22:13:41;48.33;;;20.88;;
36923;SDS011;22841;50.252;18.688;2022-12-07T22:16:35;60.35;;;24.88;;
36923;SDS011;22841;50.252;18.688;2022-12-07T22:19:01;55.25;;;24.98;;
36923;SDS011;22841;50.252;18.688;2022-12-07T22:28:25;58.88;;;23.33;;
36923;SDS011;22841;50.252;18.688;2022-12-07T22:30:51;56.85;;;23.52;;
36923;SDS011;22841;50.252;18.688;2022-12-07T23:05:08;41.58;;;18.92;;
36923;SDS011;22841;50.252;18.688;2022-12-07T23:07:34;40.70;;;18.83;;
36923;SDS011;22841;50.252;18.688;2022-12-07T23:10:00;39.88;;;16.60;;
36923;SDS011;22841;50.252;18.688;2022-12-07T23:12:26;39.20;;;16.42;;
36923;SDS011;22841;50.252;18.688;2022-12-07T23:15:11;35.53;;;15.63;;
36923;SDS011;22841;50.252;18.688;2022-12-07T23:18:09;34.30;;;16.48;;
36923;SDS011;22841;50.252;18.688;2022-12-07T23:21:07;35.22;;;15.48;;
36923;SDS011;22841;50.252;18.688;2022-12-07T23:26:58;38.78;;;15.93;;
36923;SDS011;22841;50.252;18.688;2022-12-07T23:29:24;33.58;;;15.43;;
36923;SDS011;22841;50.252;18.688;2022-12-07T23:31:50;34.30;;;15.68;;
36923;SDS011;22841;50.252;18.688;2022-12-07T23:34:16;30.15;;;13.32;;
36923;SDS011;22841;50.252;18.688;2022-12-07T23:36:42;38.78;;;15.95;;
36923;SDS011;22841;50.252;18.688;2022-12-07T23:39:08;34.30;;;15.07;;
36923;SDS011;22841;50.252;18.688;2022-12-07T23:41:35;28.55;;;14.00;;
36923;SDS011;22841;50.252;18.688;2022-12-07T23:44:01;33.75;;;14.80;;
36923;SDS011;22841;50.252;18.688;2022-12-07T23:46:31;27.45;;;13.80;;
36923;SDS011;22841;50.252;18.688;2022-12-07T23:48:59;34.92;;;15.25;;
36923;SDS011;22841;50.252;18.688;2022-12-07T23:51:26;29.38;;;14.02;;
36923;SDS011;22841;50.252;18.688;2022-12-07T23:53:57;34.47;;;14.57;;
36923;SDS011;22841;50.252;18.688;2022-12-07T23:59:50;31.60;;;15.10;;
